createdAt,value
2022-09-30T00:00:03.809Z,50.21
2022-09-30T00:04:55.864Z,50.21
2022-09-30T00:09:48.155Z,50.2
2022-09-30T00:14:40.994Z,50.17
2022-09-30T00:19:33.260Z,50.11
2022-09-30T00:24:25.641Z,50.22
2022-09-30T00:29:18.337Z,50.17
2022-09-30T00:34:10.723Z,50.15
2022-09-30T00:38:59.993Z,50.16
2022-09-30T00:43:53.547Z,50.17
2022-09-30T00:48:45.888Z,50.16
2022-09-30T00:53:38.299Z,50.15
2022-09-30T00:58:30.723Z,50.24
2022-09-30T01:03:23.252Z,50.14
2022-09-30T01:08:15.426Z,50.25
2022-09-30T01:13:07.947Z,50.22
2022-09-30T01:18:00.548Z,50.19
2022-09-30T01:22:53.029Z,50.19
2022-09-30T01:27:45.391Z,50.2
2022-09-30T01:32:37.864Z,50.2
2022-09-30T01:37:30.347Z,50.22
2022-09-30T01:42:22.694Z,50.13
2022-09-30T01:47:15.349Z,50.1
2022-09-30T01:52:07.735Z,50.11
2022-09-30T01:57:00.316Z,50.14
2022-09-30T02:01:52.897Z,50.16
2022-09-30T02:06:45.381Z,50.11
2022-09-30T02:11:37.789Z,50.21
2022-09-30T02:16:30.314Z,50.18
2022-09-30T02:21:22.756Z,50.09
2022-09-30T02:26:15.185Z,50.17
2022-09-30T02:31:07.692Z,50.08
2022-09-30T02:36:00.114Z,50.13
2022-09-30T02:40:52.676Z,50.1
2022-09-30T02:45:45.304Z,50.22
2022-09-30T02:50:37.772Z,50.24
2022-09-30T02:55:30.214Z,50.2
2022-09-30T03:00:22.829Z,50.09
2022-09-30T03:05:15.146Z,50.08
2022-09-30T03:10:07.411Z,50.07
2022-09-30T03:14:59.893Z,49.99
2022-09-30T03:19:52.328Z,50.04
2022-09-30T03:24:44.969Z,50.05
2022-09-30T03:29:37.497Z,50.11
2022-09-30T03:34:29.847Z,50.03
2022-09-30T03:39:22.297Z,49.96
2022-09-30T03:44:14.849Z,49.97
2022-09-30T03:53:59.954Z,50
2022-09-30T04:03:45.031Z,49.98
2022-09-30T04:13:29.841Z,50.12
2022-09-30T04:18:22.368Z,49.85
2022-09-30T04:23:14.840Z,50.01
2022-09-30T04:28:07.304Z,49.93
2022-09-30T04:32:59.847Z,49.81
2022-09-30T04:37:52.570Z,51.03
2022-09-30T04:42:45.174Z,50.54
2022-09-30T04:47:37.627Z,50.9
2022-09-30T04:52:30.186Z,49.62
2022-09-30T04:57:22.772Z,50.12
2022-09-30T05:02:15.239Z,49.94
2022-09-30T05:07:08.019Z,49.99
2022-09-30T05:12:00.749Z,49.87
2022-09-30T05:16:53.530Z,49.43
2022-09-30T05:21:46.418Z,49.63
2022-09-30T05:26:38.942Z,49.95
2022-09-30T05:31:31.332Z,50.52
2022-09-30T05:36:23.852Z,49.93
2022-09-30T05:41:16.548Z,49.04
2022-09-30T05:46:09.209Z,48.52
2022-09-30T05:51:01.863Z,49.6
2022-09-30T05:55:54.389Z,48.56
2022-09-30T06:00:47.276Z,48.6
2022-09-30T07:22:30.557Z,48.98
2022-09-30T07:27:25.026Z,49.31
2022-09-30T07:32:18.130Z,48.49
2022-09-30T07:37:10.581Z,49.01
2022-09-30T07:42:03.176Z,49.01
2022-09-30T07:46:55.730Z,48.81
2022-09-30T07:51:48.117Z,48.83
2022-09-30T07:56:51.498Z,48.51
2022-09-30T08:01:28.234Z,48.73
2022-09-30T08:06:21.665Z,48.59
2022-09-30T08:11:14.640Z,48.5
2022-09-30T08:16:07.568Z,48.23
2022-09-30T08:21:00.210Z,48.35
2022-09-30T08:25:52.638Z,48.28
2022-09-30T08:30:40.431Z,48.13
2022-09-30T08:35:32.795Z,48.13
2022-09-30T08:40:26.404Z,48.25
2022-09-30T08:45:18.929Z,48.25
2022-09-30T08:50:11.666Z,48.28
2022-09-30T08:55:04.360Z,48.4
2022-09-30T08:59:56.927Z,47.78
2022-09-30T09:04:49.725Z,47.92
2022-09-30T09:09:42.205Z,47.67
2022-09-30T09:14:34.654Z,48.36
2022-09-30T09:19:27.505Z,47.3
2022-09-30T09:24:19.952Z,46.8
